sensor_id;sensor_type;location;lat;lon;timestamp;temperature;humidity
6843;DHT22;3460;52.028;8.916;2022-11-10T00:00:17;11.90;99.90
6843;DHT22;3460;52.028;8.916;2022-11-10T00:02:45;11.90;99.90
6843;DHT22;3460;52.028;8.916;2022-11-10T00:05:13;11.90;99.90
6843;DHT22;3460;52.028;8.916;2022-11-10T00:07:40;11.90;99.90
6843;DHT22;3460;52.028;8.916;2022-11-10T00:10:07;11.90;99.90
6843;DHT22;3460;52.028;8.916;2022-11-10T00:12:34;11.80;99.90
6843;DHT22;3460;52.028;8.916;2022-11-10T00:15:01;11.80;99.90
6843;DHT22;3460;52.028;8.916;2022-11-10T00:17:47;11.80;99.90
6843;DHT22;3460;52.028;8.916;2022-11-10T00:20:14;11.80;99.90
6843;DHT22;3460;52.028;8.916;2022-11-10T00:22:41;11.80;99.90
6843;DHT22;3460;52.028;8.916;2022-11-10T00:25:08;11.80;99.90
6843;DHT22;3460;52.028;8.916;2022-11-10T00:27:34;11.80;99.90
6843;DHT22;3460;52.028;8.916;2022-11-10T00:30:02;11.80;99.90
6843;DHT22;3460;52.028;8.916;2022-11-10T00:32:29;11.80;99.90
6843;DHT22;3460;52.028;8.916;2022-11-10T00:34:57;11.70;99.90
6843;DHT22;3460;52.028;8.916;2022-11-10T00:37:24;11.70;99.90
6843;DHT22;3460;52.028;8.916;2022-11-10T00:39:50;11.80;99.90
6843;DHT22;3460;52.028;8.916;2022-11-10T00:42:17;11.70;99.90
6843;DHT22;3460;52.028;8.916;2022-11-10T00:44:44;11.80;99.90
6843;DHT22;3460;52.028;8.916;2022-11-10T00:47:11;11.70;99.90
6843;DHT22;3460;52.028;8.916;2022-11-10T00:49:38;11.70;99.90
6843;DHT22;3460;52.028;8.916;2022-11-10T00:52:06;11.70;99.90
6843;DHT22;3460;52.028;8.916;2022-11-10T00:54:33;11.80;99.90
6843;DHT22;3460;52.028;8.916;2022-11-10T00:57:00;11.80;99.90
6843;DHT22;3460;52.028;8.916;2022-11-10T00:59:26;11.80;99.90
6843;DHT22;3460;52.028;8.916;2022-11-10T01:01:53;11.80;99.90
6843;DHT22;3460;52.028;8.916;2022-11-10T01:04:20;11.80;99.90
6843;DHT22;3460;52.028;8.916;2022-11-10T01:06:46;11.80;99.90
6843;DHT22;3460;52.028;8.916;2022-11-10T01:09:14;11.80;99.90
6843;DHT22;3460;52.028;8.916;2022-11-10T01:11:41;11.80;99.90
6843;DHT22;3460;52.028;8.916;2022-11-10T01:14:08;11.80;99.90
6843;DHT22;3460;52.028;8.916;2022-11-10T01:16:34;11.70;99.90
6843;DHT22;3460;52.028;8.916;2022-11-10T01:19:02;11.70;99.90
6843;DHT22;3460;52.028;8.916;2022-11-10T01:21:29;11.70;99.90
6843;DHT22;3460;52.028;8.916;2022-11-10T01:23:56;11.70;99.90
6843;DHT22;3460;52.028;8.916;2022-11-10T01:26:24;11.70;99.90
6843;DHT22;3460;52.028;8.916;2022-11-10T01:28:51;11.60;99.90
6843;DHT22;3460;52.028;8.916;2022-11-10T01:31:19;11.60;99.90
6843;DHT22;3460;52.028;8.916;2022-11-10T01:33:46;11.60;99.90
6843;DHT22;3460;52.028;8.916;2022-11-10T01:36:13;11.60;99.90
6843;DHT22;3460;52.028;8.916;2022-11-10T01:38:41;11.50;99.90
6843;DHT22;3460;52.028;8.916;2022-11-10T01:41:11;11.50;99.90
6843;DHT22;3460;52.028;8.916;2022-11-10T01:43:40;11.50;99.90
6843;DHT22;3460;52.028;8.916;2022-11-10T01:46:08;11.50;99.90
6843;DHT22;3460;52.028;8.916;2022-11-10T01:48:37;11.50;99.90
6843;DHT22;3460;52.028;8.916;2022-11-10T01:51:08;11.50;99.90
6843;DHT22;3460;52.028;8.916;2022-11-10T01:53:39;11.50;99.90
6843;DHT22;3460;52.028;8.916;2022-11-10T01:56:08;11.60;99.90
6843;DHT22;3460;52.028;8.916;2022-11-10T01:58:39;11.50;99.90
6843;DHT22;3460;52.028;8.916;2022-11-10T02:01:08;11.50;99.90
6843;DHT22;3460;52.028;8.916;2022-11-10T02:03:40;11.50;99.90
6843;DHT22;3460;52.028;8.916;2022-11-10T02:06:08;11.50;99.90
6843;DHT22;3460;52.028;8.916;2022-11-10T02:08:36;11.50;99.90
6843;DHT22;3460;52.028;8.916;2022-11-10T02:11:03;11.50;99.90
6843;DHT22;3460;52.028;8.916;2022-11-10T02:13:30;11.40;99.90
6843;DHT22;3460;52.028;8.916;2022-11-10T02:15:58;11.30;99.90
6843;DHT22;3460;52.028;8.916;2022-11-10T02:18:25;11.40;99.90
6843;DHT22;3460;52.028;8.916;2022-11-10T02:20:53;11.40;99.90
6843;DHT22;3460;52.028;8.916;2022-11-10T02:23:42;11.30;99.90
6843;DHT22;3460;52.028;8.916;2022-11-10T02:26:09;11.30;99.90
6843;DHT22;3460;52.028;8.916;2022-11-10T02:28:37;11.40;99.90
6843;DHT22;3460;52.028;8.916;2022-11-10T02:31:04;11.30;99.90
6843;DHT22;3460;52.028;8.916;2022-11-10T02:33:32;11.30;99.90
6843;DHT22;3460;52.028;8.916;2022-11-10T02:36:00;11.30;99.90
6843;DHT22;3460;52.028;8.916;2022-11-10T02:38:27;11.30;99.90
6843;DHT22;3460;52.028;8.916;2022-11-10T02:40:53;11.20;99.90
6843;DHT22;3460;52.028;8.916;2022-11-10T02:43:20;11.20;99.90
6843;DHT22;3460;52.028;8.916;2022-11-10T02:45:47;11.20;99.90
6843;DHT22;3460;52.028;8.916;2022-11-10T02:48:14;11.20;99.90
6843;DHT22;3460;52.028;8.916;2022-11-10T02:50:41;11.20;99.90
6843;DHT22;3460;52.028;8.916;2022-11-10T02:53:09;11.20;99.90
6843;DHT22;3460;52.028;8.916;2022-11-10T02:55:36;11.20;99.90
6843;DHT22;3460;52.028;8.916;2022-11-10T02:58:03;11.20;99.90
6843;DHT22;3460;52.028;8.916;2022-11-10T03:00:30;11.20;99.90
6843;DHT22;3460;52.028;8.916;2022-11-10T03:02:57;11.20;99.90
6843;DHT22;3460;52.028;8.916;2022-11-10T03:05:24;11.20;99.90
6843;DHT22;3460;52.028;8.916;2022-11-10T03:07:52;11.20;99.90
6843;DHT22;3460;52.028;8.916;2022-11-10T03:10:21;11.20;99.90
6843;DHT22;3460;52.028;8.916;2022-11-10T03:12:48;11.30;99.90
6843;DHT22;3460;52.028;8.916;2022-11-10T03:15:15;11.20;99.90
6843;DHT22;3460;52.028;8.916;2022-11-10T03:17:41;11.20;99.90
6843;DHT22;3460;52.028;8.916;2022-11-10T03:20:09;11.20;99.90
6843;DHT22;3460;52.028;8.916;2022-11-10T03:22:36;11.30;99.90
6843;DHT22;3460;52.028;8.916;2022-11-10T03:25:03;11.20;99.90
6843;DHT22;3460;52.028;8.916;2022-11-10T03:27:31;11.30;99.90
6843;DHT22;3460;52.028;8.916;2022-11-10T03:29:58;11.20;99.90
6843;DHT22;3460;52.028;8.916;2022-11-10T03:32:24;11.20;99.90
6843;DHT22;3460;52.028;8.916;2022-11-10T03:34:51;11.20;99.90
6843;DHT22;3460;52.028;8.916;2022-11-10T03:37:18;11.10;99.90
6843;DHT22;3460;52.028;8.916;2022-11-10T03:39:44;11.20;99.90
6843;DHT22;3460;52.028;8.916;2022-11-10T03:42:11;11.20;99.90
6843;DHT22;3460;52.028;8.916;2022-11-10T03:44:39;11.20;99.90
6843;DHT22;3460;52.028;8.916;2022-11-10T03:47:06;11.20;99.90
6843;DHT22;3460;52.028;8.916;2022-11-10T03:49:33;11.20;99.90
6843;DHT22;3460;52.028;8.916;2022-11-10T03:51:59;11.10;99.90
6843;DHT22;3460;52.028;8.916;2022-11-10T03:54:26;11.10;99.90
6843;DHT22;3460;52.028;8.916;2022-11-10T03:56:53;11.10;99.90
6843;DHT22;3460;52.028;8.916;2022-11-10T03:59:20;11.20;99.90
6843;DHT22;3460;52.028;8.916;2022-11-10T04:01:48;11.20;99.90
6843;DHT22;3460;52.028;8.916;2022-11-10T04:04:14;11.20;99.90
6843;DHT22;3460;52.028;8.916;2022-11-10T04:06:55;11.20;99.90
6843;DHT22;3460;52.028;8.916;2022-11-10T04:09:39;11.20;99.90
6843;DHT22;3460;52.028;8.916;2022-11-10T04:12:06;11.10;99.90
6843;DHT22;3460;52.028;8.916;2022-11-10T04:14:50;11.20;99.90
6843;DHT22;3460;52.028;8.916;2022-11-10T04:17:35;11.20;99.90
6843;DHT22;3460;52.028;8.916;2022-11-10T04:20:03;11.20;99.90
6843;DHT22;3460;52.028;8.916;2022-11-10T04:22:29;11.20;99.90
6843;DHT22;3460;52.028;8.916;2022-11-10T04:25:13;11.10;99.90
6843;DHT22;3460;52.028;8.916;2022-11-10T04:27:40;11.10;99.90
6843;DHT22;3460;52.028;8.916;2022-11-10T04:30:08;11.10;99.90
6843;DHT22;3460;52.028;8.916;2022-11-10T04:32:36;11.10;99.90
6843;DHT22;3460;52.028;8.916;2022-11-10T04:35:03;11.10;99.90
6843;DHT22;3460;52.028;8.916;2022-11-10T04:37:30;11.00;99.90
6843;DHT22;3460;52.028;8.916;2022-11-10T04:39:56;11.10;99.90
6843;DHT22;3460;52.028;8.916;2022-11-10T04:42:23;11.00;99.90
6843;DHT22;3460;52.028;8.916;2022-11-10T04:44:50;11.10;99.90
6843;DHT22;3460;52.028;8.916;2022-11-10T04:47:16;11.10;99.90
6843;DHT22;3460;52.028;8.916;2022-11-10T04:49:44;11.10;99.90
6843;DHT22;3460;52.028;8.916;2022-11-10T04:52:11;11.10;99.90
6843;DHT22;3460;52.028;8.916;2022-11-10T04:54:38;11.10;99.90
6843;DHT22;3460;52.028;8.916;2022-11-10T04:57:04;11.10;99.90
6843;DHT22;3460;52.028;8.916;2022-11-10T04:59:31;11.10;99.90
6843;DHT22;3460;52.028;8.916;2022-11-10T05:01:58;11.10;99.90
6843;DHT22;3460;52.028;8.916;2022-11-10T05:04:24;11.10;99.90
6843;DHT22;3460;52.028;8.916;2022-11-10T05:06:52;11.10;99.90
6843;DHT22;3460;52.028;8.916;2022-11-10T05:09:19;11.10;99.90
6843;DHT22;3460;52.028;8.916;2022-11-10T05:11:46;11.10;99.90
6843;DHT22;3460;52.028;8.916;2022-11-10T05:14:12;11.10;99.90
6843;DHT22;3460;52.028;8.916;2022-11-10T05:16:39;11.10;99.90
6843;DHT22;3460;52.028;8.916;2022-11-10T05:19:07;11.10;99.90
6843;DHT22;3460;52.028;8.916;2022-11-10T05:21:33;11.00;99.90
6843;DHT22;3460;52.028;8.916;2022-11-10T05:24:02;11.00;99.90
6843;DHT22;3460;52.028;8.916;2022-11-10T05:26:28;11.00;99.90
6843;DHT22;3460;52.028;8.916;2022-11-10T05:28:55;11.00;99.90
6843;DHT22;3460;52.028;8.916;2022-11-10T05:31:22;11.00;99.90
6843;DHT22;3460;52.028;8.916;2022-11-10T05:33:48;11.00;99.90
6843;DHT22;3460;52.028;8.916;2022-11-10T05:36:15;11.00;99.90
6843;DHT22;3460;52.028;8.916;2022-11-10T05:38:42;11.00;99.90
6843;DHT22;3460;52.028;8.916;2022-11-10T05:41:10;11.00;99.90
6843;DHT22;3460;52.028;8.916;2022-11-10T05:43:37;11.00;99.90
6843;DHT22;3460;52.028;8.916;2022-11-10T05:46:03;10.90;99.90
6843;DHT22;3460;52.028;8.916;2022-11-10T05:48:30;11.00;99.90
6843;DHT22;3460;52.028;8.916;2022-11-10T05:50:57;10.90;99.90
6843;DHT22;3460;52.028;8.916;2022-11-10T05:53:23;11.00;99.90
6843;DHT22;3460;52.028;8.916;2022-11-10T05:55:53;11.00;99.90
6843;DHT22;3460;52.028;8.916;2022-11-10T05:58:21;10.90;99.90
6843;DHT22;3460;52.028;8.916;2022-11-10T06:00:48;10.90;99.90
6843;DHT22;3460;52.028;8.916;2022-11-10T06:03:16;10.90;99.90
6843;DHT22;3460;52.028;8.916;2022-11-10T06:05:43;10.90;99.90
6843;DHT22;3460;52.028;8.916;2022-11-10T06:08:10;10.80;99.90
6843;DHT22;3460;52.028;8.916;2022-11-10T06:10:38;10.80;99.90
6843;DHT22;3460;52.028;8.916;2022-11-10T06:13:05;11.00;99.90
6843;DHT22;3460;52.028;8.916;2022-11-10T06:15:33;10.90;99.90
6843;DHT22;3460;52.028;8.916;2022-11-10T06:18:00;11.00;99.90
6843;DHT22;3460;52.028;8.916;2022-11-10T06:20:28;10.90;99.90
6843;DHT22;3460;52.028;8.916;2022-11-10T06:22:59;11.00;99.90
6843;DHT22;3460;52.028;8.916;2022-11-10T06:25:27;11.00;99.90
6843;DHT22;3460;52.028;8.916;2022-11-10T06:27:54;11.00;99.90
6843;DHT22;3460;52.028;8.916;2022-11-10T06:30:21;11.00;99.90
6843;DHT22;3460;52.028;8.916;2022-11-10T06:32:49;11.00;99.90
6843;DHT22;3460;52.028;8.916;2022-11-10T06:35:16;11.10;99.90
6843;DHT22;3460;52.028;8.916;2022-11-10T06:37:43;11.00;99.90
6843;DHT22;3460;52.028;8.916;2022-11-10T06:40:10;11.00;99.90
6843;DHT22;3460;52.028;8.916;2022-11-10T06:42:38;11.00;99.90
6843;DHT22;3460;52.028;8.916;2022-11-10T06:45:05;11.00;99.90
6843;DHT22;3460;52.028;8.916;2022-11-10T06:47:32;11.00;99.90
6843;DHT22;3460;52.028;8.916;2022-11-10T06:50:00;11.10;99.90
6843;DHT22;3460;52.028;8.916;2022-11-10T06:52:27;11.10;99.90
6843;DHT22;3460;52.028;8.916;2022-11-10T06:54:56;11.10;99.90
6843;DHT22;3460;52.028;8.916;2022-11-10T06:57:23;11.10;99.90
6843;DHT22;3460;52.028;8.916;2022-11-10T06:59:49;11.00;99.90
6843;DHT22;3460;52.028;8.916;2022-11-10T07:02:16;11.10;99.90
6843;DHT22;3460;52.028;8.916;2022-11-10T07:04:43;11.10;99.90
6843;DHT22;3460;52.028;8.916;2022-11-10T07:07:11;11.10;99.90
6843;DHT22;3460;52.028;8.916;2022-11-10T07:09:38;11.10;99.90
6843;DHT22;3460;52.028;8.916;2022-11-10T07:12:05;11.10;99.90
6843;DHT22;3460;52.028;8.916;2022-11-10T07:14:32;11.10;99.90
6843;DHT22;3460;52.028;8.916;2022-11-10T07:17:00;11.10;99.90
6843;DHT22;3460;52.028;8.916;2022-11-10T07:19:26;11.10;99.90
6843;DHT22;3460;52.028;8.916;2022-11-10T07:21:53;11.20;99.90
6843;DHT22;3460;52.028;8.916;2022-11-10T07:24:21;11.20;99.90
6843;DHT22;3460;52.028;8.916;2022-11-10T07:26:48;11.10;99.90
6843;DHT22;3460;52.028;8.916;2022-11-10T07:29:14;11.10;99.90
6843;DHT22;3460;52.028;8.916;2022-11-10T07:31:41;11.20;99.90
6843;DHT22;3460;52.028;8.916;2022-11-10T07:34:08;11.20;99.90
6843;DHT22;3460;52.028;8.916;2022-11-10T07:36:35;11.30;99.90
6843;DHT22;3460;52.028;8.916;2022-11-10T07:39:02;11.30;99.90
6843;DHT22;3460;52.028;8.916;2022-11-10T07:41:30;11.30;99.90
6843;DHT22;3460;52.028;8.916;2022-11-10T07:43:57;11.40;99.90
6843;DHT22;3460;52.028;8.916;2022-11-10T07:46:23;11.30;99.90
6843;DHT22;3460;52.028;8.916;2022-11-10T07:48:50;11.40;99.90
6843;DHT22;3460;52.028;8.916;2022-11-10T07:51:17;11.40;99.90
6843;DHT22;3460;52.028;8.916;2022-11-10T07:53:43;11.40;99.90
6843;DHT22;3460;52.028;8.916;2022-11-10T07:56:10;11.50;99.90
6843;DHT22;3460;52.028;8.916;2022-11-10T07:58:38;11.50;99.90
6843;DHT22;3460;52.028;8.916;2022-11-10T08:01:05;11.50;99.90
6843;DHT22;3460;52.028;8.916;2022-11-10T08:03:32;11.50;99.90
6843;DHT22;3460;52.028;8.916;2022-11-10T08:05:58;11.60;99.90
6843;DHT22;3460;52.028;8.916;2022-11-10T08:08:25;11.60;99.90
6843;DHT22;3460;52.028;8.916;2022-11-10T08:10:52;11.70;99.90
6843;DHT22;3460;52.028;8.916;2022-11-10T08:13:18;11.80;99.90
6843;DHT22;3460;52.028;8.916;2022-11-10T08:15:46;11.80;99.90
6843;DHT22;3460;52.028;8.916;2022-11-10T08:18:16;11.80;99.90
6843;DHT22;3460;52.028;8.916;2022-11-10T08:20:43;11.80;99.90
6843;DHT22;3460;52.028;8.916;2022-11-10T08:23:10;11.80;99.90
6843;DHT22;3460;52.028;8.916;2022-11-10T08:25:37;11.80;99.90
6843;DHT22;3460;52.028;8.916;2022-11-10T08:28:05;11.80;99.90
6843;DHT22;3460;52.028;8.916;2022-11-10T08:30:33;11.80;99.90
6843;DHT22;3460;52.028;8.916;2022-11-10T08:33:03;11.80;99.90
6843;DHT22;3460;52.028;8.916;2022-11-10T08:35:33;11.80;99.90
6843;DHT22;3460;52.028;8.916;2022-11-10T08:38:05;11.90;99.90
6843;DHT22;3460;52.028;8.916;2022-11-10T08:40:33;11.80;99.90
6843;DHT22;3460;52.028;8.916;2022-11-10T08:43:00;11.80;99.90
6843;DHT22;3460;52.028;8.916;2022-11-10T08:45:27;11.90;99.90
6843;DHT22;3460;52.028;8.916;2022-11-10T08:47:57;11.90;99.90
6843;DHT22;3460;52.028;8.916;2022-11-10T08:50:27;12.00;99.90
6843;DHT22;3460;52.028;8.916;2022-11-10T08:52:53;12.10;99.90
6843;DHT22;3460;52.028;8.916;2022-11-10T08:55:20;12.10;99.90
6843;DHT22;3460;52.028;8.916;2022-11-10T08:57:47;12.20;99.90
6843;DHT22;3460;52.028;8.916;2022-11-10T09:00:15;12.20;99.90
6843;DHT22;3460;52.028;8.916;2022-11-10T09:02:42;12.30;99.90
6843;DHT22;3460;52.028;8.916;2022-11-10T09:05:09;12.40;99.90
6843;DHT22;3460;52.028;8.916;2022-11-10T09:07:43;12.40;99.90
6843;DHT22;3460;52.028;8.916;2022-11-10T09:10:10;12.50;99.90
6843;DHT22;3460;52.028;8.916;2022-11-10T09:12:38;12.40;99.90
6843;DHT22;3460;52.028;8.916;2022-11-10T09:15:06;12.50;99.90
6843;DHT22;3460;52.028;8.916;2022-11-10T09:17:33;12.50;99.90
6843;DHT22;3460;52.028;8.916;2022-11-10T09:19:59;12.60;99.90
6843;DHT22;3460;52.028;8.916;2022-11-10T09:22:26;12.60;99.90
6843;DHT22;3460;52.028;8.916;2022-11-10T09:24:54;12.60;99.90
6843;DHT22;3460;52.028;8.916;2022-11-10T09:27:21;12.60;99.90
6843;DHT22;3460;52.028;8.916;2022-11-10T09:29:48;12.60;99.90
6843;DHT22;3460;52.028;8.916;2022-11-10T09:32:15;12.60;99.90
6843;DHT22;3460;52.028;8.916;2022-11-10T09:34:41;12.60;99.90
6843;DHT22;3460;52.028;8.916;2022-11-10T09:37:08;12.60;99.90
6843;DHT22;3460;52.028;8.916;2022-11-10T09:39:35;12.80;99.90
6843;DHT22;3460;52.028;8.916;2022-11-10T09:42:05;12.90;99.90
6843;DHT22;3460;52.028;8.916;2022-11-10T09:44:34;13.00;99.90
6843;DHT22;3460;52.028;8.916;2022-11-10T09:47:04;13.10;99.90
6843;DHT22;3460;52.028;8.916;2022-11-10T09:49:37;13.20;99.90
6843;DHT22;3460;52.028;8.916;2022-11-10T09:52:06;13.20;99.90
6843;DHT22;3460;52.028;8.916;2022-11-10T09:54:38;13.20;99.90
6843;DHT22;3460;52.028;8.916;2022-11-10T09:57:11;13.20;99.90
6843;DHT22;3460;52.028;8.916;2022-11-10T09:59:40;13.20;99.90
6843;DHT22;3460;52.028;8.916;2022-11-10T10:02:19;13.20;99.90
6843;DHT22;3460;52.028;8.916;2022-11-10T10:05:02;13.30;99.90
6843;DHT22;3460;52.028;8.916;2022-11-10T10:07:38;13.30;99.90
6843;DHT22;3460;52.028;8.916;2022-11-10T10:10:13;13.40;99.90
6843;DHT22;3460;52.028;8.916;2022-11-10T10:12:55;13.40;99.90
6843;DHT22;3460;52.028;8.916;2022-11-10T10:15:29;13.40;99.90
6843;DHT22;3460;52.028;8.916;2022-11-10T10:18:08;13.30;99.90
6843;DHT22;3460;52.028;8.916;2022-11-10T10:20:44;13.50;99.90
6843;DHT22;3460;52.028;8.916;2022-11-10T10:23:17;13.50;99.90
6843;DHT22;3460;52.028;8.916;2022-11-10T10:25:47;13.50;99.90
6843;DHT22;3460;52.028;8.916;2022-11-10T10:28:19;13.60;99.90
6843;DHT22;3460;52.028;8.916;2022-11-10T10:30:51;13.60;99.90
6843;DHT22;3460;52.028;8.916;2022-11-10T10:33:21;13.70;99.90
6843;DHT22;3460;52.028;8.916;2022-11-10T10:35:49;13.60;99.90
6843;DHT22;3460;52.028;8.916;2022-11-10T10:38:23;13.70;99.90
6843;DHT22;3460;52.028;8.916;2022-11-10T10:40:52;13.70;99.90
6843;DHT22;3460;52.028;8.916;2022-11-10T10:43:24;13.80;99.90
6843;DHT22;3460;52.028;8.916;2022-11-10T10:46:06;13.80;99.90
6843;DHT22;3460;52.028;8.916;2022-11-10T10:48:33;13.90;99.90
6843;DHT22;3460;52.028;8.916;2022-11-10T10:51:00;13.80;99.90
6843;DHT22;3460;52.028;8.916;2022-11-10T10:53:26;13.90;99.90
6843;DHT22;3460;52.028;8.916;2022-11-10T10:55:56;14.00;99.90
6843;DHT22;3460;52.028;8.916;2022-11-10T10:58:28;14.00;99.90
6843;DHT22;3460;52.028;8.916;2022-11-10T11:01:01;14.00;99.90
6843;DHT22;3460;52.028;8.916;2022-11-10T11:03:38;14.00;99.90
6843;DHT22;3460;52.028;8.916;2022-11-10T11:06:16;14.10;99.90
6843;DHT22;3460;52.028;8.916;2022-11-10T11:08:56;14.20;99.90
6843;DHT22;3460;52.028;8.916;2022-11-10T11:11:25;14.20;99.90
6843;DHT22;3460;52.028;8.916;2022-11-10T11:14:12;14.40;99.90
6843;DHT22;3460;52.028;8.916;2022-11-10T11:16:45;14.50;99.90
6843;DHT22;3460;52.028;8.916;2022-11-10T11:19:13;14.50;99.90
6843;DHT22;3460;52.028;8.916;2022-11-10T11:21:49;14.50;99.90
6843;DHT22;3460;52.028;8.916;2022-11-10T11:24:28;14.50;99.90
6843;DHT22;3460;52.028;8.916;2022-11-10T11:27:02;14.50;99.90
6843;DHT22;3460;52.028;8.916;2022-11-10T11:29:53;14.50;99.90
6843;DHT22;3460;52.028;8.916;2022-11-10T11:32:37;14.50;99.90
6843;DHT22;3460;52.028;8.916;2022-11-10T11:35:18;14.40;99.90
6843;DHT22;3460;52.028;8.916;2022-11-10T11:37:53;14.40;99.90
6843;DHT22;3460;52.028;8.916;2022-11-10T11:40:26;14.40;99.90
6843;DHT22;3460;52.028;8.916;2022-11-10T11:43:05;14.50;99.90
6843;DHT22;3460;52.028;8.916;2022-11-10T11:45:44;14.60;99.90
6843;DHT22;3460;52.028;8.916;2022-11-10T11:48:35;14.70;99.90
6843;DHT22;3460;52.028;8.916;2022-11-10T11:51:09;14.70;99.90
6843;DHT22;3460;52.028;8.916;2022-11-10T11:53:46;14.80;99.90
6843;DHT22;3460;52.028;8.916;2022-11-10T11:56:20;14.80;99.90
6843;DHT22;3460;52.028;8.916;2022-11-10T11:58:56;14.80;99.90
6843;DHT22;3460;52.028;8.916;2022-11-10T12:01:37;14.80;99.90
6843;DHT22;3460;52.028;8.916;2022-11-10T12:04:29;14.80;99.90
6843;DHT22;3460;52.028;8.916;2022-11-10T12:07:12;14.70;99.90
6843;DHT22;3460;52.028;8.916;2022-11-10T12:09:43;14.70;99.90
6843;DHT22;3460;52.028;8.916;2022-11-10T12:12:38;14.60;99.90
6843;DHT22;3460;52.028;8.916;2022-11-10T12:15:22;14.70;99.90
6843;DHT22;3460;52.028;8.916;2022-11-10T12:18:01;14.70;99.90
6843;DHT22;3460;52.028;8.916;2022-11-10T12:20:40;14.70;99.90
6843;DHT22;3460;52.028;8.916;2022-11-10T12:23:14;14.70;99.90
6843;DHT22;3460;52.028;8.916;2022-11-10T12:25:50;14.80;99.90
6843;DHT22;3460;52.028;8.916;2022-11-10T12:28:24;14.80;99.90
6843;DHT22;3460;52.028;8.916;2022-11-10T12:30:55;14.70;99.90
6843;DHT22;3460;52.028;8.916;2022-11-10T12:33:33;14.70;99.90
6843;DHT22;3460;52.028;8.916;2022-11-10T12:36:02;14.60;99.90
6843;DHT22;3460;52.028;8.916;2022-11-10T12:38:39;14.60;99.90
6843;DHT22;3460;52.028;8.916;2022-11-10T12:41:11;14.60;99.90
6843;DHT22;3460;52.028;8.916;2022-11-10T12:43:44;14.70;99.90
6843;DHT22;3460;52.028;8.916;2022-11-10T12:46:13;14.70;99.90
6843;DHT22;3460;52.028;8.916;2022-11-10T12:48:49;14.80;99.90
6843;DHT22;3460;52.028;8.916;2022-11-10T12:51:22;14.70;99.90
6843;DHT22;3460;52.028;8.916;2022-11-10T12:53:52;14.70;99.90
6843;DHT22;3460;52.028;8.916;2022-11-10T12:56:22;14.70;99.90
6843;DHT22;3460;52.028;8.916;2022-11-10T12:59:13;14.70;99.90
6843;DHT22;3460;52.028;8.916;2022-11-10T13:01:42;14.80;99.90
6843;DHT22;3460;52.028;8.916;2022-11-10T13:04:13;14.80;99.90
6843;DHT22;3460;52.028;8.916;2022-11-10T13:06:46;14.90;99.90
6843;DHT22;3460;52.028;8.916;2022-11-10T13:09:22;14.80;99.90
6843;DHT22;3460;52.028;8.916;2022-11-10T13:12:18;14.90;99.90
6843;DHT22;3460;52.028;8.916;2022-11-10T13:14:46;14.90;99.90
6843;DHT22;3460;52.028;8.916;2022-11-10T13:17:53;15.00;99.90
6843;DHT22;3460;52.028;8.916;2022-11-10T13:20:49;15.00;99.90
6843;DHT22;3460;52.028;8.916;2022-11-10T13:23:27;15.10;99.90
6843;DHT22;3460;52.028;8.916;2022-11-10T13:25:57;15.20;99.90
6843;DHT22;3460;52.028;8.916;2022-11-10T13:28:59;15.10;99.90
6843;DHT22;3460;52.028;8.916;2022-11-10T13:31:46;15.10;99.90
6843;DHT22;3460;52.028;8.916;2022-11-10T13:34:28;15.20;99.90
6843;DHT22;3460;52.028;8.916;2022-11-10T13:36:56;15.10;99.90
6843;DHT22;3460;52.028;8.916;2022-11-10T13:39:26;15.10;99.90
6843;DHT22;3460;52.028;8.916;2022-11-10T13:41:59;15.00;99.90
6843;DHT22;3460;52.028;8.916;2022-11-10T13:44:28;15.00;99.90
6843;DHT22;3460;52.028;8.916;2022-11-10T13:47:20;15.10;99.90
6843;DHT22;3460;52.028;8.916;2022-11-10T13:50:05;15.00;99.90
6843;DHT22;3460;52.028;8.916;2022-11-10T13:52:46;15.10;99.90
6843;DHT22;3460;52.028;8.916;2022-11-10T13:55:28;15.10;99.90
6843;DHT22;3460;52.028;8.916;2022-11-10T13:57:59;15.10;99.90
6843;DHT22;3460;52.028;8.916;2022-11-10T14:00:29;15.10;99.90
6843;DHT22;3460;52.028;8.916;2022-11-10T14:02:56;15.20;99.90
6843;DHT22;3460;52.028;8.916;2022-11-10T14:08:33;15.10;99.90
6843;DHT22;3460;52.028;8.916;2022-11-10T14:11:03;15.00;99.90
6843;DHT22;3460;52.028;8.916;2022-11-10T14:13:36;15.00;99.90
6843;DHT22;3460;52.028;8.916;2022-11-10T14:16:14;14.90;99.90
6843;DHT22;3460;52.028;8.916;2022-11-10T14:18:45;14.90;99.90
6843;DHT22;3460;52.028;8.916;2022-11-10T14:21:20;14.90;99.90
6843;DHT22;3460;52.028;8.916;2022-11-10T14:23:52;14.90;99.90
6843;DHT22;3460;52.028;8.916;2022-11-10T14:26:24;14.80;99.90
6843;DHT22;3460;52.028;8.916;2022-11-10T14:28:53;14.80;99.90
6843;DHT22;3460;52.028;8.916;2022-11-10T14:31:21;14.70;99.90
6843;DHT22;3460;52.028;8.916;2022-11-10T14:33:53;14.70;99.90
6843;DHT22;3460;52.028;8.916;2022-11-10T14:36:20;14.60;99.90
6843;DHT22;3460;52.028;8.916;2022-11-10T14:38:50;14.60;99.90
6843;DHT22;3460;52.028;8.916;2022-11-10T14:41:18;14.50;99.90
6843;DHT22;3460;52.028;8.916;2022-11-10T14:44:00;14.50;99.90
6843;DHT22;3460;52.028;8.916;2022-11-10T14:46:27;14.60;99.90
6843;DHT22;3460;52.028;8.916;2022-11-10T14:48:57;14.50;99.90
6843;DHT22;3460;52.028;8.916;2022-11-10T14:51:27;14.40;99.90
6843;DHT22;3460;52.028;8.916;2022-11-10T14:53:56;14.40;99.90
6843;DHT22;3460;52.028;8.916;2022-11-10T14:56:26;14.40;99.90
6843;DHT22;3460;52.028;8.916;2022-11-10T14:58:54;14.30;99.90
6843;DHT22;3460;52.028;8.916;2022-11-10T15:01:26;14.20;99.90
6843;DHT22;3460;52.028;8.916;2022-11-10T15:03:54;14.30;99.90
6843;DHT22;3460;52.028;8.916;2022-11-10T15:06:22;14.20;99.90
6843;DHT22;3460;52.028;8.916;2022-11-10T15:08:48;14.20;99.90
6843;DHT22;3460;52.028;8.916;2022-11-10T15:11:36;14.10;99.90
6843;DHT22;3460;52.028;8.916;2022-11-10T15:14:04;14.10;99.90
6843;DHT22;3460;52.028;8.916;2022-11-10T15:16:31;14.00;99.90
6843;DHT22;3460;52.028;8.916;2022-11-10T15:19:18;14.00;99.90
6843;DHT22;3460;52.028;8.916;2022-11-10T15:21:46;13.90;99.90
6843;DHT22;3460;52.028;8.916;2022-11-10T15:24:12;13.80;99.90
6843;DHT22;3460;52.028;8.916;2022-11-10T15:26:40;13.70;99.90
6843;DHT22;3460;52.028;8.916;2022-11-10T15:29:17;13.60;99.90
6843;DHT22;3460;52.028;8.916;2022-11-10T15:31:44;13.60;99.90
6843;DHT22;3460;52.028;8.916;2022-11-10T15:34:28;13.50;99.90
6843;DHT22;3460;52.028;8.916;2022-11-10T15:37:09;13.40;99.90
6843;DHT22;3460;52.028;8.916;2022-11-10T15:39:35;13.30;99.90
6843;DHT22;3460;52.028;8.916;2022-11-10T15:42:12;13.20;99.90
6843;DHT22;3460;52.028;8.916;2022-11-10T15:44:39;13.20;99.90
6843;DHT22;3460;52.028;8.916;2022-11-10T15:47:11;13.10;99.90
6843;DHT22;3460;52.028;8.916;2022-11-10T15:49:39;13.00;99.90
6843;DHT22;3460;52.028;8.916;2022-11-10T15:52:12;13.00;99.90
6843;DHT22;3460;52.028;8.916;2022-11-10T15:54:40;12.90;99.90
6843;DHT22;3460;52.028;8.916;2022-11-10T15:57:11;12.90;99.90
6843;DHT22;3460;52.028;8.916;2022-11-10T15:59:38;12.80;99.90
6843;DHT22;3460;52.028;8.916;2022-11-10T16:02:18;12.70;99.90
6843;DHT22;3460;52.028;8.916;2022-11-10T16:04:46;12.60;99.90
6843;DHT22;3460;52.028;8.916;2022-11-10T16:07:13;12.60;99.90
6843;DHT22;3460;52.028;8.916;2022-11-10T16:09:40;12.50;99.90
6843;DHT22;3460;52.028;8.916;2022-11-10T16:12:12;12.50;99.90
6843;DHT22;3460;52.028;8.916;2022-11-10T16:14:42;12.50;99.90
6843;DHT22;3460;52.028;8.916;2022-11-10T16:17:11;12.40;99.90
6843;DHT22;3460;52.028;8.916;2022-11-10T16:19:38;12.40;99.90
6843;DHT22;3460;52.028;8.916;2022-11-10T16:22:05;12.30;99.90
6843;DHT22;3460;52.028;8.916;2022-11-10T16:24:32;12.20;99.90